createdAt,value
2023-01-17T00:01:49.704Z,2.23
2023-01-17T00:04:40.035Z,2.00
2023-01-17T00:07:25.410Z,2.83
2023-01-17T00:09:56.875Z,2.67
2023-01-17T00:12:27.642Z,2.73
2023-01-17T00:14:56.292Z,2.93
2023-01-17T00:17:24.148Z,2.37
2023-01-17T00:20:09.207Z,2.37
2023-01-17T00:22:54.461Z,2.73
2023-01-17T00:25:54.604Z,2.40
2023-01-17T00:28:22.784Z,4.27
2023-01-17T00:30:49.280Z,3.40
2023-01-17T00:33:15.687Z,3.70
2023-01-17T00:35:42.269Z,3.33
2023-01-17T00:38:13.646Z,3.07
2023-01-17T00:40:41.624Z,1.90
2023-01-17T00:43:28.186Z,2.77
2023-01-17T00:46:14.933Z,1.90
2023-01-17T00:49:00.712Z,2.47
2023-01-17T00:51:46.449Z,1.80
2023-01-17T00:54:31.890Z,2.77
2023-01-17T00:57:17.088Z,2.83
2023-01-17T01:00:02.903Z,3.50
2023-01-17T01:02:49.495Z,2.43
2023-01-17T01:05:34.642Z,3.43
2023-01-17T01:08:20.545Z,2.30
2023-01-17T01:11:07.395Z,2.80
2023-01-17T01:13:53.115Z,2.53
2023-01-17T01:16:38.420Z,4.00
2023-01-17T01:19:24.930Z,2.30
2023-01-17T01:22:10.409Z,1.57
2023-01-17T01:24:55.552Z,1.83
2023-01-17T01:27:40.956Z,1.40
2023-01-17T01:30:27.088Z,2.20
2023-01-17T01:33:12.353Z,1.93
2023-01-17T01:35:41.751Z,2.47
2023-01-17T01:38:09.555Z,2.13
2023-01-17T01:40:43.510Z,1.80
2023-01-17T01:43:14.072Z,1.67
2023-01-17T01:45:45.572Z,1.90
2023-01-17T01:48:23.198Z,1.83
2023-01-17T01:50:52.361Z,2.33
2023-01-17T01:53:22.080Z,2.23
2023-01-17T01:55:51.902Z,1.30
2023-01-17T01:58:32.093Z,1.97
2023-01-17T02:00:59.899Z,1.30
2023-01-17T02:03:32.773Z,1.60
2023-01-17T02:06:08.479Z,1.77
2023-01-17T02:08:36.679Z,1.60
2023-01-17T02:11:04.179Z,1.40
2023-01-17T02:13:31.582Z,1.77
2023-01-17T02:16:09.923Z,3.33
2023-01-17T02:18:51.947Z,2.93
2023-01-17T02:21:25.177Z,1.67
2023-01-17T02:24:23.043Z,1.30
2023-01-17T02:27:08.131Z,1.60
2023-01-17T02:30:21.417Z,1.77
2023-01-17T02:33:02.289Z,1.33
2023-01-17T02:35:41.256Z,1.67
2023-01-17T02:38:17.998Z,1.40
2023-01-17T02:40:50.451Z,2.07
2023-01-17T02:43:19.890Z,1.77
2023-01-17T02:45:47.422Z,1.57
2023-01-17T02:48:21.045Z,2.17
2023-01-17T02:51:10.286Z,3.17
2023-01-17T02:53:50.628Z,2.23
2023-01-17T02:56:31.655Z,1.47
2023-01-17T02:59:12.607Z,2.10
2023-01-17T03:01:54.165Z,2.13
2023-01-17T03:04:28.992Z,1.67
2023-01-17T03:07:01.323Z,2.13
2023-01-17T03:09:31.127Z,1.30
2023-01-17T03:11:59.018Z,1.83
2023-01-17T03:14:26.620Z,1.93
2023-01-17T03:16:54.169Z,1.53
2023-01-17T03:19:22.969Z,2.10
2023-01-17T03:21:50.359Z,2.13
2023-01-17T03:24:17.784Z,1.63
2023-01-17T03:26:47.495Z,1.53
2023-01-17T03:29:15.090Z,1.87
2023-01-17T03:31:42.531Z,1.40
2023-01-17T03:34:10.064Z,3.57
2023-01-17T03:36:38.986Z,2.33
2023-01-17T03:39:06.408Z,2.30
2023-01-17T03:41:33.882Z,2.60
2023-01-17T03:44:01.616Z,2.90
2023-01-17T03:46:29.498Z,2.60
2023-01-17T03:48:56.956Z,2.00
2023-01-17T03:51:24.410Z,1.23
2023-01-17T03:53:53.203Z,2.70
2023-01-17T03:56:20.886Z,2.90
2023-01-17T03:58:48.345Z,1.43
2023-01-17T04:01:15.924Z,1.60
2023-01-17T04:03:43.381Z,1.50
2023-01-17T04:06:10.835Z,1.90
2023-01-17T04:08:38.254Z,1.83
2023-01-17T04:11:07.133Z,1.37
2023-01-17T04:13:34.631Z,1.23
2023-01-17T04:16:02.070Z,1.57
2023-01-17T04:18:29.747Z,1.57
2023-01-17T04:20:57.208Z,1.07
2023-01-17T04:23:24.652Z,2.50
2023-01-17T04:25:52.076Z,1.00
2023-01-17T04:28:20.860Z,1.30
2023-01-17T04:30:48.353Z,1.63
2023-01-17T04:33:15.834Z,1.40
2023-01-17T04:35:43.299Z,1.20
2023-01-17T04:38:10.778Z,2.17
2023-01-17T04:40:38.247Z,1.83
2023-01-17T04:43:05.655Z,2.70
2023-01-17T04:45:34.448Z,1.67
2023-01-17T04:48:04.870Z,2.67
2023-01-17T04:50:32.527Z,1.40
2023-01-17T04:53:00.021Z,1.20
2023-01-17T04:55:27.554Z,1.40
2023-01-17T04:57:54.999Z,1.00
2023-01-17T05:00:24.163Z,2.73
2023-01-17T05:02:53.171Z,3.87
2023-01-17T05:05:20.703Z,2.60
2023-01-17T05:07:54.409Z,1.10
2023-01-17T05:10:21.929Z,1.27
2023-01-17T05:12:55.327Z,1.60
2023-01-17T05:15:23.033Z,0.90
2023-01-17T05:17:53.533Z,2.10
2023-01-17T05:20:21.792Z,2.40
2023-01-17T05:22:55.301Z,2.27
2023-01-17T05:25:23.267Z,2.07
2023-01-17T05:27:50.742Z,3.63
2023-01-17T05:30:19.305Z,2.10
2023-01-17T05:32:49.549Z,3.50
2023-01-17T05:35:19.560Z,2.03
2023-01-17T05:37:48.979Z,1.93
2023-01-17T05:40:17.027Z,3.47
2023-01-17T05:42:47.398Z,2.17
2023-01-17T05:45:16.878Z,2.97
2023-01-17T05:47:44.481Z,2.60
2023-01-17T05:50:12.551Z,3.50
2023-01-17T05:52:41.950Z,2.77
2023-01-17T05:55:10.441Z,2.57
2023-01-17T05:57:37.823Z,2.47
2023-01-17T06:00:06.248Z,2.93
2023-01-17T06:02:33.730Z,1.83
2023-01-17T06:05:03.360Z,2.20
2023-01-17T06:07:31.024Z,3.07
2023-01-17T06:09:59.828Z,4.10
2023-01-17T06:12:27.358Z,3.20
2023-01-17T06:14:54.862Z,2.73
2023-01-17T06:17:22.323Z,3.40
2023-01-17T06:19:49.715Z,2.93
2023-01-17T06:22:17.203Z,3.13
2023-01-17T06:24:44.611Z,2.70
2023-01-17T06:27:13.358Z,3.37
2023-01-17T06:29:40.895Z,3.27
2023-01-17T06:32:08.454Z,3.47
2023-01-17T06:34:35.893Z,4.23
2023-01-17T06:37:03.339Z,3.87
2023-01-17T06:39:30.756Z,3.73
2023-01-17T06:41:58.201Z,4.30
2023-01-17T06:44:27.212Z,3.07
2023-01-17T06:46:55.086Z,2.87
2023-01-17T06:49:22.566Z,4.57
2023-01-17T06:51:50.427Z,2.90
2023-01-17T06:54:18.746Z,2.90
2023-01-17T06:56:46.242Z,6.10
2023-01-17T06:59:13.727Z,4.43
2023-01-17T07:01:42.580Z,4.60
2023-01-17T07:04:10.126Z,3.30
2023-01-17T07:06:37.961Z,3.80
2023-01-17T07:09:05.654Z,3.60
2023-01-17T07:11:33.100Z,4.43
2023-01-17T07:14:00.545Z,5.03
2023-01-17T07:16:28.088Z,3.47
2023-01-17T07:18:57.948Z,3.07
2023-01-17T07:21:25.401Z,3.43
2023-01-17T07:23:52.811Z,4.07
2023-01-17T07:26:20.354Z,3.50
2023-01-17T07:28:47.829Z,4.07
2023-01-17T07:31:15.346Z,3.93
2023-01-17T07:33:42.791Z,2.70
2023-01-17T07:36:12.052Z,4.07
2023-01-17T07:38:40.300Z,2.90
2023-01-17T07:41:09.333Z,2.97
2023-01-17T07:43:38.447Z,3.20
2023-01-17T07:46:07.049Z,2.40
2023-01-17T07:48:34.855Z,3.53
2023-01-17T07:51:02.306Z,3.53
2023-01-17T07:53:32.864Z,2.80
2023-01-17T07:56:03.195Z,2.50
2023-01-17T07:58:31.069Z,3.40
2023-01-17T08:01:03.028Z,2.30
2023-01-17T08:03:32.166Z,3.33
2023-01-17T08:06:00.092Z,2.20
2023-01-17T08:08:28.890Z,2.33
2023-01-17T08:10:58.332Z,3.30
2023-01-17T08:13:25.855Z,2.67
2023-01-17T08:15:54.374Z,2.90
2023-01-17T08:18:21.928Z,4.13
2023-01-17T08:20:49.375Z,4.43
2023-01-17T08:23:16.816Z,6.03
2023-01-17T08:25:44.244Z,2.97
2023-01-17T08:28:13.251Z,3.30
2023-01-17T08:30:40.730Z,3.43
2023-01-17T08:33:08.586Z,2.30
2023-01-17T08:35:36.385Z,2.77
2023-01-17T08:38:04.808Z,2.37
2023-01-17T08:40:33.474Z,3.07
2023-01-17T08:43:01.979Z,1.73
2023-01-17T08:45:30.792Z,1.50
2023-01-17T08:47:59.065Z,2.40
2023-01-17T08:50:27.315Z,1.50
2023-01-17T08:53:01.114Z,1.67
2023-01-17T08:55:29.087Z,1.20
2023-01-17T08:57:57.205Z,1.40
2023-01-17T09:00:24.725Z,2.00
2023-01-17T09:02:54.141Z,2.67
2023-01-17T09:05:21.605Z,1.20
2023-01-17T09:07:49.080Z,1.30
2023-01-17T09:10:17.099Z,1.40
2023-01-17T09:12:44.561Z,1.10
2023-01-17T09:15:14.672Z,1.60
2023-01-17T09:17:42.141Z,1.00
2023-01-17T09:20:12.507Z,1.00
2023-01-17T09:22:39.987Z,1.40
2023-01-17T09:25:08.473Z,1.83
2023-01-17T09:27:35.903Z,1.00
2023-01-17T09:30:03.652Z,0.90
2023-01-17T09:32:31.086Z,1.00
2023-01-17T09:35:00.668Z,0.83
2023-01-17T09:37:29.940Z,1.10
2023-01-17T09:39:57.385Z,1.10
2023-01-17T09:42:32.556Z,1.40
2023-01-17T09:45:00.169Z,0.90
2023-01-17T09:47:35.513Z,1.63
2023-01-17T09:50:17.690Z,0.70
2023-01-17T09:52:46.692Z,0.73
2023-01-17T09:55:16.125Z,1.77
2023-01-17T09:57:51.773Z,1.02
2023-01-17T10:00:33.524Z,2.05
2023-01-17T10:03:21.907Z,1.83
2023-01-17T10:06:00.660Z,1.60
2023-01-17T10:08:42.597Z,2.30
2023-01-17T10:11:25.775Z,2.00
2023-01-17T10:14:08.322Z,1.77
2023-01-17T10:16:46.278Z,1.60
2023-01-17T10:19:36.454Z,1.60
2023-01-17T10:22:22.159Z,2.10
2023-01-17T10:25:07.873Z,2.50
2023-01-17T10:27:38.495Z,2.53
2023-01-17T10:30:18.823Z,1.88
2023-01-17T10:32:50.333Z,3.00
2023-01-17T10:35:22.511Z,2.00
2023-01-17T10:37:55.851Z,2.20
2023-01-17T10:40:32.732Z,2.92
2023-01-17T10:43:04.191Z,1.88
2023-01-17T10:45:37.450Z,1.85
2023-01-17T10:48:13.801Z,2.13
2023-01-17T10:50:53.846Z,1.67
2023-01-17T10:53:37.197Z,2.08
2023-01-17T10:56:07.850Z,1.50
2023-01-17T10:58:35.350Z,1.92
2023-01-17T11:01:08.133Z,1.55
2023-01-17T11:03:36.051Z,2.90
2023-01-17T11:06:18.116Z,1.75
2023-01-17T11:08:54.625Z,1.67
2023-01-17T11:11:25.997Z,1.73
2023-01-17T11:13:55.834Z,2.20
2023-01-17T11:16:27.700Z,1.58
2023-01-17T11:19:08.339Z,1.88
2023-01-17T11:21:38.744Z,1.92
2023-01-17T11:24:12.071Z,1.92
2023-01-17T11:26:49.063Z,1.80
2023-01-17T11:29:36.927Z,2.03
2023-01-17T11:32:29.679Z,2.20
2023-01-17T11:35:15.175Z,1.95
2023-01-17T11:37:49.646Z,1.40
2023-01-17T11:40:24.885Z,1.75
2023-01-17T11:43:18.499Z,1.60
2023-01-17T11:45:47.648Z,2.55
2023-01-17T11:48:18.410Z,1.20
2023-01-17T11:50:54.553Z,1.30
2023-01-17T11:53:29.188Z,1.50
2023-01-17T11:56:00.929Z,1.30
2023-01-17T11:58:31.079Z,1.02
2023-01-17T12:01:03.363Z,1.30
2023-01-17T12:03:59.351Z,1.30
2023-01-17T12:06:51.489Z,1.10
2023-01-17T12:09:33.741Z,1.58
2023-01-17T12:12:29.576Z,2.10
2023-01-17T12:15:09.802Z,1.10
2023-01-17T12:17:59.049Z,1.60
2023-01-17T12:20:41.341Z,1.55
2023-01-17T12:23:31.205Z,1.35
2023-01-17T12:26:19.455Z,1.10
2023-01-17T12:29:24.067Z,1.25
2023-01-17T12:32:07.528Z,0.95
2023-01-17T12:34:41.107Z,1.33
2023-01-17T12:37:18.680Z,1.20
2023-01-17T12:39:54.534Z,1.25
2023-01-17T12:42:25.046Z,1.30
2023-01-17T12:44:58.709Z,1.27
2023-01-17T12:47:27.640Z,1.10
2023-01-17T12:50:04.960Z,1.38
2023-01-17T12:52:45.788Z,1.38
2023-01-17T12:55:17.574Z,0.98
2023-01-17T12:57:48.726Z,0.90
2023-01-17T13:00:23.019Z,1.33
2023-01-17T13:02:58.084Z,1.08
2023-01-17T13:05:31.667Z,0.93
2023-01-17T13:08:07.429Z,0.70
2023-01-17T13:10:43.293Z,1.23
2023-01-17T13:13:22.068Z,0.90
2023-01-17T13:15:51.874Z,0.93
2023-01-17T13:18:25.716Z,0.75
2023-01-17T13:21:06.049Z,0.85
2023-01-17T13:23:46.867Z,1.48
2023-01-17T13:26:24.254Z,0.70
2023-01-17T13:29:00.126Z,0.65
2023-01-17T13:31:38.962Z,0.80
2023-01-17T13:34:42.362Z,0.80
2023-01-17T13:37:39.147Z,1.00
2023-01-17T13:40:23.340Z,0.80
2023-01-17T13:42:56.125Z,5.60
2023-01-17T13:45:26.737Z,1.42
2023-01-17T13:47:54.826Z,0.80
2023-01-17T13:50:49.509Z,0.82
2023-01-17T13:53:54.886Z,1.10
2023-01-17T13:56:31.336Z,0.80
2023-01-17T13:59:02.927Z,1.83
2023-01-17T14:01:52.913Z,1.30
2023-01-17T14:04:21.236Z,1.00
2023-01-17T14:06:55.417Z,1.27
2023-01-17T14:09:27.377Z,1.07
2023-01-17T14:12:00.996Z,1.20
2023-01-17T14:14:45.748Z,1.30
2023-01-17T14:17:46.814Z,1.73
2023-01-17T14:20:39.191Z,1.40
2023-01-17T14:23:24.281Z,1.37
2023-01-17T14:25:53.448Z,1.63
2023-01-17T14:28:24.673Z,1.83
2023-01-17T14:30:55.903Z,1.97
2023-01-17T14:33:29.667Z,1.27
2023-01-17T14:35:58.848Z,1.33
2023-01-17T14:38:28.960Z,1.60
2023-01-17T14:40:59.448Z,1.03
2023-01-17T14:43:29.118Z,1.20
2023-01-17T14:46:02.710Z,1.50
2023-01-17T14:48:30.382Z,1.33
2023-01-17T14:51:00.260Z,1.67
2023-01-17T14:53:30.547Z,1.40
2023-01-17T14:56:01.528Z,1.20
2023-01-17T14:58:30.857Z,1.03
2023-01-17T15:01:01.721Z,1.43
2023-01-17T15:03:31.215Z,1.83
2023-01-17T15:06:10.610Z,1.67
2023-01-17T15:08:40.089Z,1.20
2023-01-17T15:11:11.437Z,1.57
2023-01-17T15:13:44.883Z,1.40
2023-01-17T15:16:20.189Z,1.70
2023-01-17T15:18:48.409Z,1.30
2023-01-17T15:21:19.176Z,2.00
2023-01-17T15:23:50.136Z,2.13
2023-01-17T15:26:20.831Z,1.40
2023-01-17T15:28:48.932Z,1.30
2023-01-17T15:31:18.684Z,1.83
2023-01-17T15:33:47.653Z,2.13
2023-01-17T15:36:24.382Z,1.70
2023-01-17T15:38:59.501Z,1.53
2023-01-17T15:41:30.813Z,1.20
2023-01-17T15:43:58.781Z,2.57
2023-01-17T15:46:34.027Z,1.33
2023-01-17T15:49:18.947Z,1.37
2023-01-17T15:51:49.936Z,1.30
2023-01-17T15:54:35.331Z,1.10
2023-01-17T15:57:17.879Z,1.43
2023-01-17T15:59:47.509Z,0.97
2023-01-17T16:02:28.620Z,1.10
2023-01-17T16:04:56.502Z,1.63
2023-01-17T16:07:31.217Z,1.93
2023-01-17T16:10:08.351Z,2.33
2023-01-17T16:12:35.898Z,1.57
2023-01-17T16:15:12.448Z,1.53
2023-01-17T16:17:42.471Z,1.73
2023-01-17T16:20:15.986Z,1.87
2023-01-17T16:22:44.570Z,1.87
2023-01-17T16:25:18.398Z,2.20
2023-01-17T16:27:46.721Z,1.50
2023-01-17T16:30:16.337Z,2.10
2023-01-17T16:32:46.807Z,1.50
2023-01-17T16:35:19.059Z,1.67
2023-01-17T16:37:50.613Z,1.30
2023-01-17T16:40:20.937Z,1.70
2023-01-17T16:42:48.882Z,1.20
2023-01-17T16:45:16.993Z,1.40
2023-01-17T16:47:46.649Z,2.10
2023-01-17T16:50:16.362Z,1.73
2023-01-17T16:52:44.004Z,1.10
2023-01-17T16:55:15.081Z,2.80
2023-01-17T16:57:44.327Z,1.47
2023-01-17T17:00:13.686Z,2.73
2023-01-17T17:02:41.697Z,2.57
2023-01-17T17:05:10.516Z,1.20
2023-01-17T17:07:42.651Z,1.30
2023-01-17T17:10:11.135Z,1.53
2023-01-17T17:12:38.669Z,1.53
2023-01-17T17:15:09.306Z,1.50
2023-01-17T17:17:37.086Z,1.57
2023-01-17T17:20:05.984Z,2.00
2023-01-17T17:22:36.295Z,1.30
2023-01-17T17:25:05.135Z,1.50
2023-01-17T17:27:33.318Z,1.50
2023-01-17T17:30:00.858Z,1.67
2023-01-17T17:32:31.003Z,1.77
2023-01-17T17:34:58.790Z,2.17
2023-01-17T17:37:28.941Z,1.50
2023-01-17T17:39:56.954Z,2.77
2023-01-17T17:42:25.539Z,5.60
2023-01-17T17:44:53.585Z,6.23
2023-01-17T17:47:21.134Z,4.63
2023-01-17T17:49:49.919Z,6.40
2023-01-17T17:52:17.694Z,8.33
2023-01-17T17:54:45.398Z,6.27
2023-01-17T17:57:12.868Z,6.00
2023-01-17T17:59:40.362Z,5.67
2023-01-17T18:02:10.729Z,3.17
2023-01-17T18:04:38.414Z,2.70
2023-01-17T18:07:07.274Z,2.87
2023-01-17T18:09:34.880Z,2.87
2023-01-17T18:12:03.141Z,2.57
2023-01-17T18:14:31.064Z,3.07
2023-01-17T18:16:58.495Z,2.43
2023-01-17T18:19:27.185Z,2.17
2023-01-17T18:21:55.325Z,2.80
2023-01-17T18:24:25.481Z,2.87
2023-01-17T18:26:55.803Z,2.70
2023-01-17T18:29:24.196Z,3.33
2023-01-17T18:31:53.632Z,3.20
2023-01-17T18:34:24.097Z,2.20
2023-01-17T18:36:52.583Z,2.77
2023-01-17T18:39:21.978Z,2.30
2023-01-17T18:41:51.146Z,3.60
2023-01-17T18:44:21.817Z,2.13
2023-01-17T18:46:50.259Z,2.67
2023-01-17T18:49:20.299Z,2.20
2023-01-17T18:51:50.581Z,2.50
2023-01-17T18:54:18.952Z,2.07
2023-01-17T18:56:46.395Z,3.67
2023-01-17T18:59:18.101Z,3.07
2023-01-17T19:01:45.729Z,3.00
2023-01-17T19:04:15.649Z,3.60
2023-01-17T19:06:44.893Z,2.63
2023-01-17T19:09:14.498Z,3.10
2023-01-17T19:11:43.000Z,3.20
2023-01-17T19:14:11.912Z,2.87
2023-01-17T19:16:41.850Z,2.87
2023-01-17T19:19:11.882Z,2.27
2023-01-17T19:21:39.512Z,2.83
2023-01-17T19:24:07.551Z,3.97
2023-01-17T19:26:35.180Z,3.60
2023-01-17T19:29:03.625Z,4.50
2023-01-17T19:31:32.772Z,4.70
2023-01-17T19:34:01.667Z,4.07
2023-01-17T19:36:33.380Z,2.97
2023-01-17T19:39:05.593Z,4.53
2023-01-17T19:41:35.239Z,5.00
2023-01-17T19:44:05.494Z,4.13
2023-01-17T19:46:33.554Z,3.40
2023-01-17T19:49:02.906Z,2.77
2023-01-17T19:51:30.548Z,4.03
2023-01-17T19:54:00.971Z,2.43
2023-01-17T19:56:28.886Z,3.40
2023-01-17T19:59:00.623Z,4.93
2023-01-17T20:01:30.278Z,3.80
2023-01-17T20:03:58.617Z,4.70
2023-01-17T20:06:29.241Z,5.03
2023-01-17T20:08:56.991Z,4.50
2023-01-17T20:11:26.111Z,6.57
2023-01-17T20:13:55.489Z,5.83
2023-01-17T20:16:23.654Z,5.33
2023-01-17T20:18:51.550Z,5.70
2023-01-17T20:21:21.678Z,3.70
2023-01-17T20:23:51.408Z,3.57
2023-01-17T20:26:21.618Z,2.87
2023-01-17T20:28:51.589Z,4.07
2023-01-17T20:31:22.985Z,2.83
2023-01-17T20:33:51.683Z,3.10
2023-01-17T20:36:20.557Z,3.80
2023-01-17T20:38:49.554Z,5.40
2023-01-17T20:41:19.083Z,6.13
2023-01-17T20:43:49.530Z,6.33
2023-01-17T20:46:17.771Z,5.10
2023-01-17T20:48:46.207Z,3.17
2023-01-17T20:51:14.688Z,4.23
2023-01-17T20:53:44.227Z,3.67
2023-01-17T20:56:15.271Z,3.47
2023-01-17T20:58:43.786Z,4.70
2023-01-17T21:01:13.462Z,5.27
2023-01-17T21:03:41.229Z,4.47
2023-01-17T21:06:11.504Z,4.97
2023-01-17T21:08:40.601Z,3.20
2023-01-17T21:11:10.323Z,2.70
2023-01-17T21:13:39.805Z,2.90
2023-01-17T21:16:08.247Z,3.57
2023-01-17T21:18:36.407Z,4.17
2023-01-17T21:21:05.614Z,3.47
2023-01-17T21:23:33.071Z,3.90
2023-01-17T21:26:00.531Z,3.37
2023-01-17T21:28:30.280Z,3.67
2023-01-17T21:30:59.245Z,4.00
2023-01-17T21:33:29.198Z,5.10
2023-01-17T21:35:56.635Z,3.73
2023-01-17T21:38:24.130Z,3.80
2023-01-17T21:40:51.598Z,3.87
2023-01-17T21:43:19.027Z,3.33
2023-01-17T21:45:46.478Z,4.03
2023-01-17T21:48:15.259Z,5.30
2023-01-17T21:50:42.699Z,5.40
2023-01-17T21:53:10.814Z,4.77
2023-01-17T21:56:07.391Z,4.03
2023-01-17T21:58:48.075Z,3.50
2023-01-17T22:01:17.807Z,4.13
2023-01-17T22:03:49.213Z,5.20
2023-01-17T22:06:16.817Z,4.40
2023-01-17T22:08:44.339Z,2.80
2023-01-17T22:11:14.112Z,3.57
2023-01-17T22:13:42.913Z,3.97
2023-01-17T22:16:12.705Z,5.10
2023-01-17T22:18:42.018Z,3.63
2023-01-17T22:21:13.094Z,5.00
2023-01-17T22:23:41.685Z,3.43
2023-01-17T22:26:11.595Z,4.23
2023-01-17T22:28:40.485Z,4.33
2023-01-17T22:31:10.550Z,4.40
2023-01-17T22:33:38.909Z,3.53
2023-01-17T22:36:08.012Z,4.63
2023-01-17T22:38:37.504Z,3.93
2023-01-17T22:41:07.805Z,4.93
2023-01-17T22:43:37.375Z,4.03
2023-01-17T22:46:05.768Z,2.90
2023-01-17T22:48:33.724Z,5.00
2023-01-17T22:51:02.530Z,5.97
2023-01-17T22:53:31.199Z,5.40
2023-01-17T22:56:01.956Z,5.10
2023-01-17T22:58:30.186Z,3.83
2023-01-17T23:01:05.358Z,6.03
2023-01-17T23:03:33.004Z,5.20
2023-01-17T23:06:12.103Z,4.17
2023-01-17T23:08:41.433Z,3.70
2023-01-17T23:11:40.542Z,4.67
2023-01-17T23:14:11.086Z,4.70
2023-01-17T23:16:57.452Z,3.30
2023-01-17T23:19:26.126Z,3.40
2023-01-17T23:22:14.387Z,3.50
2023-01-17T23:24:43.929Z,4.63
2023-01-17T23:27:32.474Z,4.00
2023-01-17T23:30:00.028Z,5.00
2023-01-17T23:32:28.067Z,3.30
2023-01-17T23:34:55.587Z,3.83
2023-01-17T23:37:43.863Z,4.50
2023-01-17T23:40:12.714Z,4.60
2023-01-17T23:42:59.967Z,3.23
2023-01-17T23:45:27.617Z,5.10
2023-01-17T23:47:55.271Z,2.90
2023-01-17T23:50:22.736Z,4.43
2023-01-17T23:52:50.142Z,4.33
2023-01-17T23:55:17.970Z,4.30
2023-01-17T23:57:49.517Z,5.77
